Time;durP1;ratioP1;P1;durP2;ratioP2;P2;SDS_P1;SDS_P2;PMS_P1;PMS_P2;Temp;Humidity;BMP_temperature;BMP_pressure;BME280_temperature;BME280_humidity;BME280_pressure;Samples;Min_cycle;Max_cycle;Signal;HPM_P1;HPM_P2
2022/05/02 00:00:51;;;;;;;5.38;4.53;;;9.70;99.90;;;;;;5035294;28;20368;-82
2022/05/02 00:03:17;;;;;;;6.40;4.25;;;9.70;99.90;;;;;;5035025;28;20361;-81
2022/05/02 00:05:43;;;;;;;5.45;4.53;;;9.80;99.90;;;;;;5035265;28;20387;-83
2022/05/02 00:08:09;;;;;;;5.23;3.90;;;9.90;99.90;;;;;;5035024;28;20422;-82
2022/05/02 00:10:35;;;;;;;5.23;4.30;;;9.80;99.90;;;;;;5035149;28;20450;-84
2022/05/02 00:13:01;;;;;;;4.07;3.67;;;9.60;99.90;;;;;;5034595;28;20411;-82
2022/05/02 00:15:27;;;;;;;5.80;4.80;;;9.60;99.90;;;;;;5035024;28;20379;-82
2022/05/02 00:17:56;;;;;;;4.90;4.20;;;9.60;99.90;;;;;;5047863;28;20397;-83
2022/05/02 00:20:23;;;;;;;5.78;4.40;;;9.50;99.90;;;;;;5014592;28;20432;-82
2022/05/02 00:22:48;;;;;;;6.72;4.75;;;9.50;99.90;;;;;;5014654;28;20920;-83
2022/05/02 00:25:15;;;;;;;6.68;4.72;;;9.50;99.90;;;;;;5015832;28;20378;-82
2022/05/02 00:27:57;;;;;;;7.53;4.65;;;9.60;99.90;;;;;;5016201;28;20432;-83
2022/05/02 00:30:23;;;;;;;5.27;4.67;;;9.50;99.90;;;;;;5015899;28;20370;-83
2022/05/02 00:32:49;;;;;;;5.70;4.57;;;9.50;99.90;;;;;;5015410;28;20733;-84
2022/05/02 00:35:16;;;;;;;8.32;5.22;;;9.50;99.90;;;;;;5015847;28;20389;-82
2022/05/02 00:38:03;;;;;;;6.40;4.72;;;9.50;99.90;;;;;;5016113;28;20728;-83
2022/05/02 00:40:29;;;;;;;6.30;5.18;;;9.50;99.90;;;;;;5014994;28;20373;-84
2022/05/02 00:42:54;;;;;;;5.70;4.45;;;9.60;99.90;;;;;;5015178;28;20378;-83
2022/05/02 00:45:21;;;;;;;5.47;4.47;;;9.60;99.90;;;;;;5015762;28;20381;-83
2022/05/02 00:47:58;;;;;;;6.65;4.85;;;9.70;99.90;;;;;;5015758;28;20389;-85
2022/05/02 00:50:47;;;;;;;6.35;4.85;;;9.70;99.90;;;;;;5014961;28;20393;-81
2022/05/02 00:53:35;;;;;;;5.90;4.70;;;9.60;99.90;;;;;;5015365;28;20465;-84
2022/05/02 00:56:02;;;;;;;7.45;5.22;;;9.60;99.90;;;;;;5015551;28;20392;-84
2022/05/02 00:58:28;;;;;;;6.60;4.93;;;9.50;99.90;;;;;;5015645;28;20421;-81
2022/05/02 01:00:54;;;;;;;7.30;4.88;;;9.50;99.90;;;;;;5015309;28;20359;-83
2022/05/02 01:03:20;;;;;;;7.15;4.68;;;9.50;99.90;;;;;;5015340;28;20374;-81
2022/05/02 01:08:52;;;;;;;5.95;4.90;;;9.60;99.90;;;;;;5033180;28;20396;-83
2022/05/02 01:11:18;;;;;;;6.80;4.88;;;9.60;99.90;;;;;;5014474;28;20434;-83
2022/05/02 01:13:47;;;;;;;6.28;4.97;;;9.50;99.90;;;;;;5014493;28;20807;-84
2022/05/02 01:16:24;;;;;;;5.97;4.35;;;9.50;99.90;;;;;;5014557;28;20377;-83
2022/05/02 01:19:08;;;;;;;4.32;3.92;;;9.50;99.90;;;;;;5014097;28;20377;-82
2022/05/02 01:21:34;;;;;;;5.53;4.47;;;9.50;99.90;;;;;;5014144;28;20400;-82
2022/05/02 01:24:02;;;;;;;5.80;4.70;;;9.40;99.90;;;;;;5013435;28;20389;-82
2022/05/02 01:26:28;;;;;;;5.57;4.40;;;9.20;99.90;;;;;;5031285;28;20384;-81
2022/05/02 01:29:01;;;;;;;5.20;4.30;;;9.10;99.90;;;;;;5014214;28;20365;-80
2022/05/02 01:31:27;;;;;;;5.20;4.70;;;9.10;99.90;;;;;;5013572;28;20412;-82
2022/05/02 01:33:53;;;;;;;9.15;5.10;;;9.00;99.90;;;;;;5031879;28;20759;-80
2022/05/02 01:36:20;;;;;;;9.25;4.95;;;8.90;99.90;;;;;;5014332;28;20456;-81
2022/05/02 01:38:46;;;;;;;5.85;4.93;;;8.90;99.90;;;;;;5031192;28;20458;-81
2022/05/02 01:41:12;;;;;;;7.73;4.77;;;8.80;99.90;;;;;;5013204;28;20527;-85
2022/05/02 01:43:39;;;;;;;6.50;4.80;;;8.70;99.90;;;;;;5013863;28;20878;-80
2022/05/02 01:46:06;;;;;;;5.13;4.57;;;8.50;99.90;;;;;;5012676;28;20406;-80
2022/05/02 01:48:32;;;;;;;5.07;4.60;;;8.50;99.90;;;;;;5013293;28;20401;-81
2022/05/02 01:50:58;;;;;;;5.40;4.73;;;8.40;99.90;;;;;;5013536;28;20404;-81
2022/05/02 01:53:24;;;;;;;5.70;5.10;;;8.30;99.90;;;;;;5014269;28;20445;-82
2022/05/02 01:55:50;;;;;;;5.40;4.65;;;8.20;99.90;;;;;;5014516;28;20901;-81
2022/05/02 01:58:17;;;;;;;6.10;4.90;;;8.10;99.90;;;;;;5014866;28;20393;-84
2022/05/02 02:00:43;;;;;;;5.38;4.85;;;8.00;99.90;;;;;;5032235;28;20424;-80
2022/05/02 02:03:09;;;;;;;6.40;5.63;;;7.90;99.90;;;;;;5014208;28;20420;-83
2022/05/02 02:05:50;;;;;;;8.52;5.25;;;7.70;99.90;;;;;;5013890;28;20496;-80
2022/05/02 02:08:33;;;;;;;9.52;5.32;;;7.70;99.90;;;;;;5017333;28;20369;-81
2022/05/02 02:11:04;;;;;;;6.03;5.43;;;7.50;99.90;;;;;;5020637;28;20389;-80
2022/05/02 02:13:33;;;;;;;5.87;5.30;;;7.50;99.90;;;;;;4999829;28;20782;-82
2022/05/02 02:16:01;;;;;;;6.35;5.75;;;7.40;99.90;;;;;;5013523;28;20372;-83
2022/05/02 02:18:26;;;;;;;8.73;5.47;;;7.30;99.90;;;;;;5013081;28;20779;-83
2022/05/02 02:20:54;;;;;;;6.90;5.60;;;7.20;99.90;;;;;;5012517;28;20500;-83
2022/05/02 02:23:21;;;;;;;7.10;5.63;;;7.20;99.90;;;;;;5012880;28;20527;-82
2022/05/02 02:25:47;;;;;;;7.53;5.30;;;7.00;99.90;;;;;;5013082;28;20376;-82
2022/05/02 02:28:34;;;;;;;6.65;5.82;;;7.00;99.90;;;;;;5013284;28;20457;-83
2022/05/02 02:30:59;;;;;;;8.52;6.30;;;6.90;99.90;;;;;;5013439;28;20382;-83
2022/05/02 02:33:25;;;;;;;9.60;6.80;;;7.00;99.90;;;;;;5013137;28;20728;-81
2022/05/02 02:35:51;;;;;;;9.43;6.80;;;7.00;99.90;;;;;;5013260;28;20906;-83
2022/05/02 02:38:16;;;;;;;9.07;6.60;;;6.80;99.90;;;;;;5012865;28;20388;-82
2022/05/02 02:40:43;;;;;;;6.73;6.00;;;6.70;99.90;;;;;;5012880;28;20468;-82
2022/05/02 02:43:09;;;;;;;7.38;6.30;;;6.60;99.90;;;;;;5012441;28;20386;-82
2022/05/02 02:45:34;;;;;;;7.18;5.88;;;6.50;99.90;;;;;;5012435;28;20396;-80
2022/05/02 02:48:00;;;;;;;8.57;6.77;;;6.40;99.90;;;;;;5012205;28;20378;-82
2022/05/02 02:50:26;;;;;;;7.73;7.03;;;6.30;99.90;;;;;;5012688;28;21034;-82
2022/05/02 02:52:52;;;;;;;7.80;6.50;;;6.30;99.90;;;;;;5012604;28;20394;-80
2022/05/02 02:55:17;;;;;;;7.43;6.70;;;6.30;99.90;;;;;;5012368;28;20386;-82
2022/05/02 02:57:43;;;;;;;7.88;7.18;;;6.20;99.90;;;;;;5012264;28;20493;-81
2022/05/02 03:00:09;;;;;;;10.10;7.60;;;6.30;99.90;;;;;;5016746;28;20376;-82
2022/05/02 03:02:40;;;;;;;8.88;6.82;;;6.20;99.90;;;;;;5016384;28;20384;-81
2022/05/02 03:07:51;;;;;;;7.40;6.70;;;6.00;99.90;;;;;;5033846;28;20396;-82
2022/05/02 03:10:17;;;;;;;45.35;11.57;;;5.90;99.90;;;;;;5016320;28;20867;-81
2022/05/02 03:12:43;;;;;;;7.75;7.00;;;5.80;99.90;;;;;;5016600;28;20424;-82
2022/05/02 03:15:09;;;;;;;9.50;7.30;;;5.80;99.90;;;;;;5016553;28;20454;-79
2022/05/02 03:17:34;;;;;;;8.85;6.70;;;5.70;99.90;;;;;;5018027;28;20443;-80
2022/05/02 03:20:00;;;;;;;9.77;7.85;;;5.70;99.90;;;;;;5036640;28;20874;-79
2022/05/02 03:22:26;;;;;;;10.43;7.75;;;5.70;99.90;;;;;;5037569;28;20722;-81
2022/05/02 03:24:51;;;;;;;9.15;8.13;;;5.80;99.90;;;;;;5036479;28;20450;-82
2022/05/02 03:27:17;;;;;;;12.40;8.70;;;5.70;99.90;;;;;;5035922;28;20892;-82
2022/05/02 03:29:43;;;;;;;10.63;8.47;;;5.70;99.90;;;;;;5036422;28;20427;-79
2022/05/02 03:32:08;;;;;;;10.13;7.80;;;5.60;99.90;;;;;;5036853;28;20383;-81
2022/05/02 03:34:34;;;;;;;10.52;7.65;;;5.50;99.90;;;;;;5036478;28;20534;-82
2022/05/02 03:37:00;;;;;;;11.88;8.70;;;5.50;99.90;;;;;;5036523;28;20391;-81
2022/05/02 03:39:25;;;;;;;11.95;8.82;;;5.50;99.90;;;;;;5036296;28;20411;-81
2022/05/02 03:41:52;;;;;;;11.03;8.00;;;5.40;99.90;;;;;;5037195;28;20415;-81
2022/05/02 03:58:23;;;;;;;8.48;7.53;;;5.30;99.90;;;;;;4878809;29;20490;-82
2022/05/02 04:00:52;;;;;;;10.25;7.95;;;5.30;99.90;;;;;;4859795;29;20433;-81
2022/05/02 04:03:48;;;;;;;8.52;7.63;;;5.30;99.90;;;;;;4943398;28;20443;-83
2022/05/02 04:06:59;;;;;;;8.15;7.15;;;5.20;99.90;;;;;;5023283;28;20406;-83
2022/05/02 04:13:22;;;;;;;8.15;7.20;;;5.60;99.90;;;;;;4953271;28;21282;-84
2022/05/02 04:15:49;;;;;;;8.75;6.88;;;5.40;99.90;;;;;;4936410;29;20435;-83
2022/05/02 04:56:50;;;;;;;16.27;6.15;;;7.40;99.90;;;;;;4732877;30;20434;-83
2022/05/02 04:59:18;;;;;;;11.80;5.97;;;7.90;99.90;;;;;;4726955;30;20418;-83
2022/05/02 05:01:50;;;;;;;9.67;5.57;;;8.20;99.90;;;;;;4779819;29;20413;-80
2022/05/02 05:04:18;;;;;;;6.43;5.65;;;8.40;99.90;;;;;;4890860;29;20433;-81
2022/05/02 05:06:46;;;;;;;9.60;5.50;;;8.60;99.90;;;;;;4934340;29;20965;-83
2022/05/02 05:09:12;;;;;;;5.93;5.35;;;8.90;99.90;;;;;;4980214;28;20477;-82
2022/05/02 05:12:06;;;;;;;6.93;5.63;;;8.90;99.90;;;;;;5036396;28;20889;-82
2022/05/02 05:18:31;;;;;;;10.38;6.05;;;8.80;99.90;;;;;;5055220;28;20356;-81
2022/05/02 05:21:13;;;;;;;7.10;5.30;;;9.00;99.90;;;;;;5010305;28;20384;-81
2022/05/02 05:24:07;;;;;;;7.80;5.43;;;9.10;99.90;;;;;;5037042;28;20396;-81
2022/05/02 05:26:56;;;;;;;36.70;7.53;;;9.50;99.90;;;;;;5038062;28;20870;-83
2022/05/02 05:29:31;;;;;;;8.15;5.38;;;9.90;99.90;;;;;;5057409;28;20375;-84
2022/05/02 05:32:15;;;;;;;8.93;5.78;;;10.30;99.90;;;;;;5056174;28;20438;-84
2022/05/02 05:34:46;;;;;;;7.97;5.60;;;10.70;99.90;;;;;;5039369;28;20422;-83
2022/05/02 05:37:30;;;;;;;10.63;5.25;;;11.10;99.90;;;;;;5056349;28;20375;-80
2022/05/02 05:40:25;;;;;;;22.95;6.93;;;11.20;99.90;;;;;;5037828;28;20543;-84
2022/05/02 05:43:26;;;;;;;9.63;6.63;;;11.10;99.90;;;;;;5037840;28;20382;-83
2022/05/02 05:46:10;;;;;;;10.83;6.83;;;10.80;99.90;;;;;;5056998;28;20391;-82
2022/05/02 05:49:12;;;;;;;16.33;6.80;;;10.70;99.90;;;;;;5034535;28;20458;-83
2022/05/02 05:51:51;;;;;;;29.02;8.05;;;10.70;99.90;;;;;;4967630;28;20943;-84
2022/05/02 05:54:26;;;;;;;17.23;7.32;;;11.00;99.90;;;;;;5051198;28;20379;-82
2022/05/02 05:57:15;;;;;;;12.77;7.53;;;11.30;99.90;;;;;;5052611;28;20726;-82
2022/05/02 05:59:49;;;;;;;14.32;7.07;;;11.50;99.90;;;;;;5037871;28;20377;-81
2022/05/02 06:02:18;;;;;;;11.37;7.00;;;11.80;99.90;;;;;;5051164;28;20465;-80
2022/05/02 06:04:49;;;;;;;7.60;6.80;;;12.00;99.90;;;;;;5033127;28;20506;-83
2022/05/02 06:07:19;;;;;;;9.30;6.72;;;11.90;99.90;;;;;;5033129;28;20387;-82
2022/05/02 06:09:47;;;;;;;7.15;5.90;;;11.80;99.90;;;;;;5051115;28;20458;-81
2022/05/02 06:12:14;;;;;;;9.38;6.30;;;11.80;99.90;;;;;;5050789;28;20388;-84
2022/05/02 06:20:22;;;;;;;10.18;6.10;;;12.50;99.90;;;;;;5030557;28;20970;-83
2022/05/02 06:22:47;;;;;;;12.73;6.37;;;12.90;99.90;;;;;;5029417;28;20393;-83
2022/05/02 06:25:19;;;;;;;9.57;5.90;;;13.30;99.90;;;;;;5012361;28;20369;-81
2022/05/02 06:27:46;;;;;;;6.95;5.43;;;14.10;99.90;;;;;;5012301;28;20423;-81
2022/05/02 06:30:14;;;;;;;7.90;5.60;;;14.20;99.90;;;;;;5013304;28;20389;-82
2022/05/02 06:32:43;;;;;;;7.63;5.68;;;14.50;99.90;;;;;;5031012;28;20408;-82
2022/05/02 06:35:09;;;;;;;6.80;4.90;;;14.70;99.90;;;;;;5033499;28;20409;-80
2022/05/02 06:37:50;;;;;;;8.67;5.53;;;15.20;99.90;;;;;;5031219;28;20467;-82
2022/05/02 06:40:35;;;;;;;8.48;5.00;;;15.20;99.90;;;;;;5013635;28;20863;-85
2022/05/02 06:43:21;;;;;;;6.32;5.00;;;;;;;;;;5031757;28;20381;-81
2022/05/02 06:45:53;;;;;;;7.10;5.67;;;15.40;99.00;;;;;;5013847;28;20374;-81
2022/05/02 06:48:34;;;;;;;10.43;6.28;;;15.60;98.90;;;;;;5031084;28;20468;-81
2022/05/02 06:51:06;;;;;;;9.63;6.35;;;15.40;98.90;;;;;;5013106;28;20380;-81
2022/05/02 06:54:09;;;;;;;9.60;5.97;;;15.40;99.90;;;;;;5012871;28;20447;-83
2022/05/02 06:56:49;;;;;;;7.00;4.93;;;15.90;99.90;;;;;;5014819;28;20855;-83
2022/05/02 06:59:50;;;;;;;9.88;5.10;;;15.90;97.40;;;;;;5036318;28;20368;-83
2022/05/02 07:02:38;;;;;;;10.00;5.07;;;16.20;99.10;;;;;;5026747;28;20563;-83
2022/05/02 07:05:12;;;;;;;8.82;5.57;;;;;;;;;;5052644;28;20395;-85
2022/05/02 07:07:53;;;;;;;8.23;4.80;;;16.60;98.30;;;;;;5054449;28;20456;-83
2022/05/02 07:10:24;;;;;;;7.97;4.60;;;16.90;96.00;;;;;;5052267;28;20418;-82
2022/05/02 07:12:54;;;;;;;7.60;5.78;;;;;;;;;;5052720;28;20772;-84
2022/05/02 07:15:36;;;;;;;8.37;4.93;;;17.00;99.90;;;;;;5051718;28;20364;-82
2022/05/02 07:18:06;;;;;;;8.10;4.85;;;16.90;99.90;;;;;;5028161;28;20376;-83
2022/05/02 07:20:59;;;;;;;6.10;4.53;;;16.60;99.90;;;;;;5032473;28;20487;-82
2022/05/02 07:23:40;;;;;;;6.38;4.05;;;;;;;;;;5013727;28;20393;-82
2022/05/02 07:26:21;;;;;;;6.72;4.15;;;;;;;;;;5051118;28;20364;-82
2022/05/02 07:28:51;;;;;;;6.10;3.88;;;;;;;;;;5056222;28;20410;-82
2022/05/02 07:31:24;;;;;;;6.28;4.15;;;;;;;;;;5054197;28;20380;-84
2022/05/02 07:33:52;;;;;;;7.77;4.20;;;16.50;99.90;;;;;;5033809;28;20376;-82
2022/05/02 07:36:22;;;;;;;5.50;3.90;;;16.80;93.40;;;;;;5012419;28;20381;-82
2022/05/02 07:39:00;;;;;;;6.90;4.45;;;17.10;95.40;;;;;;5029901;28;20423;-83
2022/05/02 07:41:27;;;;;;;6.00;4.05;;;;;;;;;;5012477;28;20800;-83
2022/05/02 07:44:08;;;;;;;5.63;4.28;;;;;;;;;;5042168;28;20375;-83
2022/05/02 07:46:39;;;;;;;6.55;4.10;;;17.70;92.30;;;;;;5035943;28;20414;-83
2022/05/02 07:49:07;;;;;;;124.13;14.55;;;17.60;91.80;;;;;;5039620;28;20411;-82
2022/05/02 07:51:35;;;;;;;7.60;4.10;;;17.30;92.90;;;;;;5067011;28;20912;-81
2022/05/02 07:54:01;;;;;;;5.57;4.30;;;17.20;93.20;;;;;;5034788;28;20385;-83
2022/05/02 07:56:30;;;;;;;17.75;4.88;;;17.40;92.70;;;;;;5052098;28;20385;-82
2022/05/02 07:58:58;;;;;;;25.55;5.75;;;17.30;93.10;;;;;;5050754;28;20383;-79
2022/05/02 08:01:25;;;;;;;6.85;3.65;;;17.30;92.30;;;;;;5053103;28;20403;-82
2022/05/02 08:03:52;;;;;;;26.08;5.82;;;16.80;92.50;;;;;;5051993;28;20372;-82
2022/05/02 08:06:22;;;;;;;8.77;4.15;;;16.50;93.20;;;;;;5046922;28;20460;-82
2022/05/02 08:09:02;;;;;;;5.45;4.47;;;16.30;93.90;;;;;;5046687;28;20380;-82
2022/05/02 08:12:02;;;;;;;6.78;4.50;;;15.90;94.60;;;;;;5028547;28;20440;-82
2022/05/02 08:14:56;;;;;;;7.22;4.53;;;15.70;94.40;;;;;;5040810;28;20437;-81
2022/05/02 08:17:47;;;;;;;6.93;4.00;;;16.00;94.80;;;;;;5039094;28;20378;-81
2022/05/02 08:20:35;;;;;;;7.50;4.10;;;16.30;94.90;;;;;;5049643;28;20364;-82
2022/05/02 08:29:35;;;;;;;4.25;3.33;;;17.30;92.90;;;;;;5054669;28;20365;-82
2022/05/02 08:32:04;;;;;;;16.70;4.67;;;17.60;91.60;;;;;;5035721;28;20401;-82
2022/05/02 08:34:43;;;;;;;8.88;4.30;;;17.50;93.40;;;;;;5054727;28;20868;-82
2022/05/02 08:37:31;;;;;;;7.57;4.00;;;17.70;98.90;;;;;;5049872;28;20374;-82
2022/05/02 08:40:02;;;;;;;5.65;3.90;;;;;;;;;;5051399;28;20378;-82
2022/05/02 08:42:41;;;;;;;6.70;3.70;;;;;;;;;;5053560;28;20449;-82
2022/05/02 08:45:17;;;;;;;6.13;4.10;;;;;;;;;;5049083;28;20362;-84
2022/05/02 08:47:49;;;;;;;6.85;4.47;;;;;;;;;;5049252;28;20902;-82
2022/05/02 08:50:23;;;;;;;5.53;3.60;;;;;;;;;;5049187;28;20443;-83
2022/05/02 08:53:09;;;;;;;5.32;3.63;;;;;;;;;;5049807;28;20442;-80
2022/05/02 08:55:39;;;;;;;8.05;3.60;;;;;;;;;;5037852;28;20422;-81
2022/05/02 08:58:11;;;;;;;5.67;3.77;;;;;;;;;;5055836;28;20393;-81
2022/05/02 09:00:48;;;;;;;6.25;3.85;;;18.40;89.70;;;;;;5051059;28;20369;-81
2022/05/02 09:03:55;;;;;;;6.05;4.43;;;18.30;89.40;;;;;;5063707;28;20417;-83
2022/05/02 09:06:52;;;;;;;5.40;3.30;;;18.00;90.20;;;;;;5035471;28;20424;-82
2022/05/02 09:09:42;;;;;;;4.88;3.72;;;18.20;93.40;;;;;;5036258;28;20906;-82
2022/05/02 09:12:46;;;;;;;5.90;3.80;;;18.30;90.00;;;;;;5050473;28;20393;-81
2022/05/02 09:15:40;;;;;;;7.00;3.50;;;18.00;90.30;;;;;;5013603;28;20387;-81
2022/05/02 09:18:42;;;;;;;6.72;4.10;;;18.10;90.80;;;;;;5053112;28;20457;-81
2022/05/02 09:21:28;;;;;;;4.05;3.30;;;18.20;90.30;;;;;;5050460;28;20375;-80
2022/05/02 09:24:17;;;;;;;6.82;3.72;;;18.10;88.60;;;;;;5060896;28;20800;-81
2022/05/02 09:27:13;;;;;;;7.85;4.30;;;17.80;89.20;;;;;;5063209;28;20393;-82
2022/05/02 09:29:47;;;;;;;5.35;3.90;;;18.00;90.30;;;;;;5032071;28;20381;-80
2022/05/02 09:32:40;;;;;;;4.37;3.60;;;18.30;91.50;;;;;;5045334;28;20755;-81
2022/05/02 09:35:15;;;;;;;7.13;3.67;;;18.70;91.10;;;;;;5042550;28;21274;-81
2022/05/02 09:37:52;;;;;;;4.65;3.35;;;18.60;90.30;;;;;;5045880;28;20390;-81
2022/05/02 09:40:23;;;;;;;5.70;3.50;;;18.70;87.40;;;;;;5059286;28;20387;-81
2022/05/02 09:43:07;;;;;;;6.95;4.00;;;18.60;88.10;;;;;;5025264;28;20516;-82
2022/05/02 09:51:48;;;;;;;5.75;3.88;;;18.50;88.20;;;;;;5039798;28;20814;-83
2022/05/02 09:57:41;;;;;;;7.38;4.90;;;18.90;88.60;;;;;;5040719;28;20444;-81
2022/05/02 10:03:03;;;;;;;6.38;3.88;;;18.20;86.80;;;;;;5038629;28;20404;-83
2022/05/02 10:05:45;;;;;;;5.10;4.15;;;18.40;88.10;;;;;;5038125;28;20456;-83
2022/05/02 10:08:26;;;;;;;9.33;4.20;;;18.50;87.70;;;;;;5021400;28;21193;-82
2022/05/02 10:11:08;;;;;;;8.02;4.03;;;18.90;90.00;;;;;;5039921;28;20366;-82
2022/05/02 10:13:52;;;;;;;5.10;3.67;;;19.10;90.10;;;;;;5021113;28;20409;-82
2022/05/02 10:16:30;;;;;;;4.25;3.60;;;19.40;87.50;;;;;;5040044;28;20457;-82
2022/05/02 10:19:37;;;;;;;7.13;3.90;;;19.30;86.40;;;;;;5039334;28;20471;-83
2022/05/02 10:22:22;;;;;;;5.95;3.97;;;19.00;86.50;;;;;;5040734;28;20451;-82
2022/05/02 10:25:10;;;;;;;5.88;3.90;;;18.90;90.50;;;;;;5040884;28;20529;-81
2022/05/02 10:28:07;;;;;;;4.43;3.20;;;19.00;86.90;;;;;;5021727;28;20464;-83
2022/05/02 10:30:53;;;;;;;7.53;3.67;;;19.30;86.90;;;;;;5019712;28;20382;-83
2022/05/02 10:33:34;;;;;;;7.22;3.55;;;19.40;84.90;;;;;;5040028;28;20740;-83
2022/05/02 10:36:03;;;;;;;4.47;3.10;;;19.20;87.10;;;;;;5039490;28;20439;-83
2022/05/02 10:38:30;;;;;;;3.80;3.38;;;19.20;87.90;;;;;;5038705;28;20385;-82
2022/05/02 10:41:12;;;;;;;5.43;3.17;;;19.20;85.10;;;;;;5041276;28;20800;-82
2022/05/02 10:43:48;;;;;;;6.35;3.70;;;19.00;86.90;;;;;;5039749;28;20403;-82
2022/05/02 10:46:15;;;;;;;9.88;4.20;;;18.80;86.60;;;;;;5020644;28;20389;-82
2022/05/02 10:48:54;;;;;;;6.20;3.70;;;18.60;87.00;;;;;;5039038;28;20370;-81
2022/05/02 10:51:30;;;;;;;4.65;3.55;;;18.40;87.50;;;;;;5040036;28;20419;-81
2022/05/02 10:53:58;;;;;;;5.10;3.40;;;18.40;88.90;;;;;;5037920;28;20381;-84
2022/05/02 10:56:35;;;;;;;11.00;4.35;;;18.30;89.30;;;;;;5020017;28;20405;-84
2022/05/02 10:59:03;;;;;;;4.70;3.90;;;18.40;88.40;;;;;;5019735;28;20460;-84
2022/05/02 11:01:44;;;;;;;5.03;3.88;;;18.50;89.50;;;;;;5039795;28;20371;-84
2022/05/02 11:04:33;;;;;;;5.93;3.80;;;18.80;86.40;;;;;;5019439;28;20396;-83
2022/05/02 11:07:15;;;;;;;5.22;3.72;;;18.90;87.70;;;;;;5036571;28;20449;-83
2022/05/02 11:09:55;;;;;;;5.40;3.40;;;19.30;87.20;;;;;;5029839;28;20365;-84
2022/05/02 11:12:31;;;;;;;6.33;3.57;;;19.40;85.10;;;;;;5035598;28;20388;-83
2022/05/02 11:15:05;;;;;;;5.60;3.58;;;19.50;83.60;;;;;;5049695;28;20694;-83
2022/05/02 11:17:59;;;;;;;6.70;4.38;;;19.40;84.90;;;;;;5030134;28;20385;-82
2022/05/02 11:21:00;;;;;;;7.03;3.80;;;19.30;85.90;;;;;;5041377;28;20380;-82
2022/05/02 11:23:38;;;;;;;5.43;3.40;;;19.40;87.00;;;;;;5025695;28;20462;-83
2022/05/02 11:26:32;;;;;;;6.25;4.40;;;19.80;87.00;;;;;;5044454;28;20383;-82
2022/05/02 11:29:31;;;;;;;9.30;4.40;;;20.20;83.00;;;;;;5047249;28;20384;-82
2022/05/02 11:32:03;;;;;;;10.68;4.75;;;20.20;85.40;;;;;;5045995;28;20445;-83
2022/05/02 11:34:49;;;;;;;6.15;4.28;;;20.30;85.00;;;;;;5027538;28;20944;-84
2022/05/02 11:37:29;;;;;;;8.88;4.38;;;20.30;86.90;;;;;;5015541;28;20917;-82
2022/05/02 11:39:57;;;;;;;7.75;4.57;;;20.60;83.60;;;;;;5049307;28;20909;-82
2022/05/02 11:42:28;;;;;;;7.80;4.70;;;20.60;82.80;;;;;;5033900;28;20407;-82
2022/05/02 11:45:12;;;;;;;7.45;5.45;;;20.40;83.90;;;;;;5033020;28;20738;-82
2022/05/02 11:47:59;;;;;;;6.35;4.88;;;19.50;83.20;;;;;;5052824;28;20430;-84
2022/05/02 11:50:27;;;;;;;6.78;4.72;;;19.40;85.40;;;;;;5050848;28;20364;-83
2022/05/02 11:52:56;;;;;;;8.07;4.75;;;19.60;86.20;;;;;;5023561;28;20404;-82
2022/05/02 11:55:32;;;;;;;7.65;4.20;;;;;;;;;;5051537;28;20861;-81
2022/05/02 11:58:05;;;;;;;6.72;4.80;;;;;;;;;;5022082;28;20393;-80
2022/05/02 12:00:34;;;;;;;4.95;4.45;;;20.30;99.90;;;;;;5017431;28;20822;-82
2022/05/02 12:03:10;;;;;;;5.30;4.53;;;20.40;96.70;;;;;;5036875;28;20389;-83
2022/05/02 12:05:40;;;;;;;6.90;4.40;;;20.40;97.10;;;;;;5032487;28;20406;-88
2022/05/02 12:08:21;;;;;;;5.70;3.88;;;20.50;99.90;;;;;;5014813;28;20432;-84
2022/05/02 12:10:48;;;;;;;6.13;4.43;;;;;;;;;;5032948;28;20369;-82
2022/05/02 12:13:17;;;;;;;7.72;4.60;;;20.10;99.90;;;;;;5018970;28;20498;-82
2022/05/02 12:16:00;;;;;;;6.25;4.78;;;20.00;99.90;;;;;;5033065;28;20898;-83
2022/05/02 12:18:42;;;;;;;5.68;4.43;;;;;;;;;;5031955;28;20410;-82
2022/05/02 12:21:10;;;;;;;8.35;4.65;;;;;;;;;;5032561;28;20427;-82
2022/05/02 12:23:40;;;;;;;5.63;4.30;;;19.50;99.90;;;;;;5015001;28;20432;-82
2022/05/02 12:26:20;;;;;;;7.60;4.47;;;19.70;99.90;;;;;;5049729;28;20430;-82
2022/05/02 12:28:48;;;;;;;6.50;4.63;;;19.90;99.90;;;;;;5046389;28;20412;-81
2022/05/02 12:31:17;;;;;;;6.35;4.90;;;19.90;99.90;;;;;;5020728;28;20854;-82
2022/05/02 12:33:50;;;;;;;6.93;4.97;;;19.40;99.90;;;;;;5032390;28;20473;-82
2022/05/02 12:36:18;;;;;;;7.93;4.73;;;19.40;99.90;;;;;;5030121;28;20415;-83
2022/05/02 12:38:52;;;;;;;5.53;4.65;;;;;;;;;;5032622;28;20384;-82
2022/05/02 12:41:27;;;;;;;6.20;4.68;;;19.60;99.90;;;;;;5038526;28;20381;-84
2022/05/02 12:43:55;;;;;;;5.93;4.23;;;;;;;;;;5017739;28;20415;-82
2022/05/02 12:46:32;;;;;;;8.23;4.93;;;19.60;99.90;;;;;;5049703;28;20455;-85
2022/05/02 12:49:03;;;;;;;4.90;4.00;;;19.80;99.90;;;;;;5032238;28;20382;-84
2022/05/02 12:51:31;;;;;;;6.50;4.57;;;19.80;99.90;;;;;;5044731;28;20392;-84
2022/05/02 12:54:12;;;;;;;7.32;4.93;;;19.80;99.90;;;;;;5048477;28;20546;-83
2022/05/02 13:02:51;;;;;;;6.65;4.00;;;19.90;99.90;;;;;;5036959;28;20850;-81
2022/05/02 13:05:20;;;;;;;6.82;4.55;;;20.10;99.90;;;;;;5044067;28;20391;-82
2022/05/02 13:07:51;;;;;;;7.60;4.55;;;20.10;99.90;;;;;;5051943;28;20388;-82
2022/05/02 13:10:26;;;;;;;6.07;4.80;;;20.20;99.90;;;;;;5051143;28;20375;-82
2022/05/02 13:12:58;;;;;;;6.40;4.55;;;20.10;99.90;;;;;;5047100;28;20399;-83
2022/05/02 13:15:26;;;;;;;8.57;4.50;;;19.90;99.90;;;;;;5033715;28;20387;-83
2022/05/02 13:17:57;;;;;;;5.80;4.40;;;20.00;99.90;;;;;;5050177;28;20387;-83
2022/05/02 13:20:28;;;;;;;6.10;4.63;;;20.00;99.90;;;;;;5051485;28;20372;-83
2022/05/02 13:22:59;;;;;;;5.88;4.22;;;20.00;99.90;;;;;;5051323;28;20371;-83
2022/05/02 13:25:45;;;;;;;6.63;4.17;;;20.10;99.90;;;;;;5051482;28;20891;-83
2022/05/02 13:28:25;;;;;;;8.25;4.63;;;20.30;99.90;;;;;;5033920;28;20385;-82
2022/05/02 13:31:24;;;;;;;6.25;4.60;;;20.40;99.90;;;;;;5030133;28;20387;-86
2022/05/02 13:33:51;;;;;;;6.93;4.78;;;20.00;99.90;;;;;;4992411;28;20396;-85
2022/05/02 13:36:18;;;;;;;9.98;4.60;;;20.00;99.90;;;;;;5034619;28;20925;-83
2022/05/02 13:38:52;;;;;;;8.18;4.65;;;20.10;99.90;;;;;;5030911;28;20389;-82
2022/05/02 13:41:34;;;;;;;6.43;4.30;;;;;;;;;;5031115;28;20892;-82
2022/05/02 13:44:23;;;;;;;6.20;4.00;;;;;;;;;;5030628;28;20378;-85
2022/05/02 13:47:20;;;;;;;9.02;4.72;;;20.30;99.90;;;;;;5024946;28;20368;-83
2022/05/02 13:50:10;;;;;;;12.57;4.88;;;20.10;99.90;;;;;;5028500;28;20376;-85
2022/05/02 13:52:55;;;;;;;4.60;4.00;;;20.10;99.90;;;;;;5024614;28;20476;-84
2022/05/02 13:55:29;;;;;;;5.75;4.10;;;19.90;99.90;;;;;;5039378;28;20923;-82
2022/05/02 13:58:13;;;;;;;6.13;4.00;;;19.60;99.90;;;;;;5040917;28;20408;-83
2022/05/02 14:04:16;;;;;;;8.30;4.80;;;19.50;99.90;;;;;;5041009;28;21074;-84
2022/05/02 14:06:30;;;;;;;4.80;3.90;;;19.50;99.90;;;;;;5035104;28;20389;-82
2022/05/02 14:08:57;;;;;;;5.70;3.90;;;19.60;99.90;;;;;;5022355;28;20472;-84
2022/05/02 14:11:28;;;;;;;6.30;4.10;;;19.50;99.90;;;;;;5040099;28;20388;-82
2022/05/02 14:14:06;;;;;;;4.90;3.85;;;19.70;99.90;;;;;;5021879;28;20392;-83
2022/05/02 14:16:38;;;;;;;5.47;4.53;;;19.80;99.90;;;;;;5041633;28;20402;-82
2022/05/02 14:19:04;;;;;;;6.55;4.20;;;19.90;99.90;;;;;;5040573;28;20377;-83
2022/05/02 14:21:31;;;;;;;5.68;4.20;;;19.70;99.90;;;;;;5041125;28;20707;-84
2022/05/02 14:24:03;;;;;;;5.95;4.28;;;;;;;;;;5014373;28;20453;-85
2022/05/02 14:26:32;;;;;;;4.90;3.80;;;;;;;;;;5044353;28;20818;-84
2022/05/02 14:29:01;;;;;;;6.03;3.55;;;;;;;;;;5033932;28;20741;-82
2022/05/02 14:31:46;;;;;;;4.70;3.50;;;;;;;;;;5024953;28;20384;-82
2022/05/02 14:34:16;;;;;;;9.50;4.47;;;;;;;;;;5043580;28;20402;-82
2022/05/02 14:36:42;;;;;;;6.53;4.00;;;;;;;;;;5023465;28;20413;-82
2022/05/02 14:39:17;;;;;;;6.20;4.13;;;;;;;;;;5031806;28;20397;-82
2022/05/02 14:41:46;;;;;;;4.57;3.43;;;;;;;;;;5045345;28;20781;-82
2022/05/02 14:44:14;;;;;;;6.07;3.80;;;;;;;;;;5031915;28;20369;-84
2022/05/02 14:46:41;;;;;;;6.25;3.65;;;;;;;;;;5037114;28;20399;-82
2022/05/02 14:49:11;;;;;;;6.57;3.72;;;;;;;;;;5030460;28;20372;-81
2022/05/02 14:51:42;;;;;;;4.07;3.67;;;19.40;99.90;;;;;;5041319;28;20364;-83
2022/05/02 14:54:10;;;;;;;7.45;4.18;;;19.30;83.80;;;;;;5042527;28;20399;-80
2022/05/02 14:56:42;;;;;;;6.97;4.40;;;19.30;84.20;;;;;;5049844;28;20508;-82
2022/05/02 14:59:12;;;;;;;5.50;4.18;;;19.20;84.60;;;;;;5052048;28;20371;-82
2022/05/02 15:01:40;;;;;;;3.95;3.55;;;19.30;83.60;;;;;;5040958;28;20902;-81
2022/05/02 15:04:19;;;;;;;6.30;3.97;;;19.50;84.60;;;;;;5029476;28;20395;-84
2022/05/02 15:06:47;;;;;;;5.15;3.10;;;19.60;83.40;;;;;;5030027;28;20392;-83
2022/05/02 15:12:47;;;;;;;4.15;3.65;;;19.70;84.00;;;;;;5047352;28;20403;-81
2022/05/02 15:15:34;;;;;;;4.43;3.75;;;19.50;83.40;;;;;;5023654;28;20371;-82
2022/05/02 15:18:22;;;;;;;5.85;3.90;;;19.50;83.10;;;;;;5032722;28;20374;-81
2022/05/02 15:21:00;;;;;;;5.05;3.40;;;19.30;83.40;;;;;;5044595;28;20401;-82
2022/05/02 15:23:26;;;;;;;7.80;4.38;;;19.40;83.70;;;;;;5019884;28;20792;-83